Time;durP1;ratioP1;P1;durP2;ratioP2;P2;SDS_P1;SDS_P2;PMS_P1;PMS_P2;Temp;Humidity;BMP_temperature;BMP_pressure;BME280_temperature;BME280_humidity;BME280_pressure;Samples;Min_cycle;Max_cycle;Signal;HPM_P1;HPM_P2
2023/01/16 00:01:28;;;;;;;28.27;18.93;;;;;;;3.95;100.00;99815.81;1402215;88;21377;-76
2023/01/16 00:03:54;;;;;;;28.43;17.90;;;;;;;3.98;100.00;99809.02;1396652;88;21311;-76
2023/01/16 00:06:20;;;;;;;31.03;18.67;;;;;;;4.01;100.00;99810.09;1396797;88;22339;-76
2023/01/16 00:08:48;;;;;;;31.33;19.13;;;;;;;4.01;100.00;99804.02;1396672;88;21570;-76
2023/01/16 00:11:15;;;;;;;29.17;19.60;;;;;;;4.01;100.00;99803.55;1394960;88;21399;-76
2023/01/16 00:13:41;;;;;;;31.20;21.63;;;;;;;3.98;100.00;99797.23;1402530;88;21385;-76
2023/01/16 00:16:08;;;;;;;33.60;20.67;;;;;;;3.98;100.00;99793.31;1396653;88;22295;-76
2023/01/16 00:18:34;;;;;;;30.07;18.73;;;;;;;3.98;100.00;99793.31;1396947;88;21348;-76
2023/01/16 00:21:01;;;;;;;31.30;18.60;;;;;;;3.98;100.00;99784.62;1396954;88;21341;-76
2023/01/16 00:23:28;;;;;;;32.00;17.33;;;;;;;4.01;100.00;99788.31;1402129;88;21582;-76
2023/01/16 00:25:54;;;;;;;31.60;20.27;;;;;;;4.03;100.00;99789.86;1396829;88;21349;-76
2023/01/16 00:28:21;;;;;;;36.67;19.53;;;;;;;4.06;100.00;99789.62;1396920;88;21297;-77
2023/01/16 00:30:47;;;;;;;30.57;18.63;;;;;;;4.06;100.00;99785.69;1402556;88;22288;-76
2023/01/16 00:33:13;;;;;;;28.87;18.40;;;;;;;4.06;100.00;99791.41;1548002;88;21349;-77
2023/01/16 00:35:39;;;;;;;31.57;21.23;;;;;;;4.04;100.00;99784.97;1394330;88;21312;-77
2023/01/16 00:38:06;;;;;;;28.50;19.63;;;;;;;4.03;100.00;99786.41;1394367;88;21563;-76
2023/01/16 00:40:32;;;;;;;28.23;18.33;;;;;;;4.01;100.00;99785.21;1394244;88;21341;-76
2023/01/16 00:42:58;;;;;;;27.50;17.93;;;;;;;4.01;100.00;99782.59;1400106;88;22200;-77
2023/01/16 00:45:24;;;;;;;29.03;17.50;;;;;;;4.00;100.00;99774.39;1533700;88;21419;-76
2023/01/16 00:47:51;;;;;;;34.27;20.60;;;;;;;4.03;100.00;99768.91;1394394;88;21407;-76
2023/01/16 00:50:17;;;;;;;29.27;18.17;;;;;;;4.06;100.00;99757.36;1394749;88;21393;-77
2023/01/16 00:52:43;;;;;;;31.87;19.70;;;;;;;4.10;100.00;99748.78;1394361;88;21334;-77
2023/01/16 00:55:09;;;;;;;34.27;19.47;;;;;;;4.13;100.00;99751.98;1394852;88;21497;-77
2023/01/16 00:57:35;;;;;;;30.00;18.93;;;;;;;4.12;100.00;99753.42;1394673;88;21349;-77
2023/01/16 01:00:02;;;;;;;30.37;18.40;;;;;;;4.12;100.00;99762.59;1394242;88;22297;-77
2023/01/16 01:02:28;;;;;;;31.60;19.10;;;;;;;4.07;100.00;99769.02;1394113;88;22358;-76
2023/01/16 01:04:54;;;;;;;28.20;17.77;;;;;;;4.06;100.00;99763.42;1400376;88;21311;-77
2023/01/16 01:07:20;;;;;;;29.23;17.10;;;;;;;4.05;100.00;99756.50;1394464;88;21422;-77
2023/01/16 01:09:46;;;;;;;28.83;18.67;;;;;;;4.05;100.00;99745.20;1394275;88;21502;-77
2023/01/16 01:12:13;;;;;;;27.43;15.77;;;;;;;4.07;100.00;99749.37;1400422;88;22217;-77
2023/01/16 01:14:39;;;;;;;37.63;18.40;;;;;;;4.06;100.00;99756.05;1554007;88;22185;-77
2023/01/16 01:17:05;;;;;;;29.97;18.40;;;;;;;4.05;100.00;99755.20;1394511;88;21327;-76
2023/01/16 01:19:32;;;;;;;28.73;18.40;;;;;;;4.03;100.00;99754.99;1394613;88;21485;-77
2023/01/16 01:21:58;;;;;;;28.90;18.67;;;;;;;3.99;100.00;99750.45;1400223;88;21415;-77
2023/01/16 01:24:24;;;;;;;26.73;17.67;;;;;;;4.00;100.00;99748.20;1394206;88;21485;-78
2023/01/16 01:26:50;;;;;;;25.93;16.53;;;;;;;3.99;100.00;99748.31;1394690;88;22229;-77
2023/01/16 01:29:17;;;;;;;35.57;18.70;;;;;;;4.02;100.00;99750.69;1399992;88;21475;-78
2023/01/16 01:31:43;;;;;;;37.17;19.43;;;;;;;4.00;100.00;99753.45;1420084;88;21488;-77
2023/01/16 01:34:09;;;;;;;29.40;17.00;;;;;;;3.99;100.00;99752.24;1402466;88;22289;-76
2023/01/16 01:36:35;;;;;;;29.90;19.03;;;;;;;3.96;100.00;99752.01;1470781;88;21503;-77
2023/01/16 01:39:02;;;;;;;28.80;17.17;;;;;;;3.92;100.00;99751.91;1474856;88;21465;-77
2023/01/16 01:41:28;;;;;;;29.87;19.00;;;;;;;3.92;100.00;99747.98;1470911;88;21672;-77
2023/01/16 01:43:57;;;;;;;33.27;19.77;;;;;;;3.92;100.00;99747.16;1466047;88;21451;-77
2023/01/16 01:46:27;;;;;;;28.33;16.80;;;;;;;3.90;100.00;99740.72;1474862;88;21605;-77
2023/01/16 01:49:19;;;;;;;30.55;17.05;;;;;;;3.92;100.00;99737.51;1480549;88;21422;-77
2023/01/16 01:51:46;;;;;;;25.60;17.20;;;;;;;3.94;100.00;99729.06;1476904;88;22551;-77
2023/01/16 01:54:17;;;;;;;31.90;20.33;;;;;;;3.97;100.00;99726.20;1476664;88;21642;-76
2023/01/16 01:56:54;;;;;;;29.77;18.10;;;;;;;3.97;100.00;99722.27;1472693;88;22353;-76
2023/01/16 01:59:41;;;;;;;33.40;20.10;;;;;;;3.96;100.00;99717.97;1469740;88;21444;-76
2023/01/16 02:02:12;;;;;;;30.23;18.23;;;;;;;3.93;100.00;99712.98;1468161;88;21598;-79
2023/01/16 02:04:42;;;;;;;29.50;18.27;;;;;;;3.92;100.00;99708.71;1464765;88;21495;-78
2023/01/16 02:07:11;;;;;;;29.60;16.87;;;;;;;3.91;100.00;99701.79;1471237;88;21414;-77
2023/01/16 02:09:38;;;;;;;31.53;20.20;;;;;;;3.93;100.00;99702.51;1473631;88;21650;-78
2023/01/16 02:12:14;;;;;;;24.57;16.20;;;;;;;3.96;100.00;99690.96;1472170;88;21480;-78
2023/01/16 02:14:45;;;;;;;28.23;18.07;;;;;;;3.97;100.00;99693.47;1468126;88;21466;-77
2023/01/16 02:20:21;;;;;;;31.63;20.17;;;;;;;3.98;100.00;99692.50;1469635;88;21608;-76
2023/01/16 02:23:05;;;;;;;31.93;19.60;;;;;;;3.94;100.00;99689.79;1472342;88;21458;-77
2023/01/16 02:26:00;;;;;;;30.37;19.50;;;;;;;3.91;100.00;99687.39;1472901;88;21569;-76
2023/01/16 02:29:24;;;;;;;26.80;17.07;;;;;;;3.91;100.00;99683.95;1471912;88;21510;-77
2023/01/16 02:32:22;;;;;;;28.03;18.60;;;;;;;3.89;100.00;99675.41;1476022;88;21459;-77
2023/01/16 02:35:07;;;;;;;30.90;18.77;;;;;;;3.94;100.00;99672.77;1478426;88;21510;-77
2023/01/16 02:37:44;;;;;;;30.07;18.87;;;;;;;3.98;100.00;99675.48;1480063;88;21436;-78
2023/01/16 02:40:31;;;;;;;31.33;20.43;;;;;;;3.99;100.00;99673.21;1482337;88;21482;-79
2023/01/16 02:43:33;;;;;;;31.33;20.83;;;;;;;3.94;100.00;99664.92;1473061;88;22465;-78
2023/01/16 02:46:25;;;;;;;35.00;21.10;;;;;;;3.94;100.00;99664.92;1475348;88;22324;-78
2023/01/16 02:49:03;;;;;;;29.80;18.90;;;;;;;3.99;100.00;99669.28;1479673;88;21481;-78
2023/01/16 02:51:41;;;;;;;28.13;17.77;;;;;;;3.97;100.00;99677.77;1477126;88;21509;-76
2023/01/16 02:54:25;;;;;;;26.63;17.17;;;;;;;3.97;100.00;99675.59;1474102;88;21399;-77
2023/01/16 02:56:57;;;;;;;29.43;18.73;;;;;;;3.98;100.00;99674.66;1479123;88;22011;-76
2023/01/16 02:59:27;;;;;;;32.00;19.73;;;;;;;3.95;100.00;99660.51;1479967;88;21443;-77
2023/01/16 03:01:55;;;;;;;35.23;18.63;;;;;;;3.94;100.00;99653.59;1472182;88;21435;-76
2023/01/16 03:04:50;;;;;;;31.93;20.00;;;;;;;3.94;100.00;99660.13;1474672;88;21487;-76
2023/01/16 03:07:46;;;;;;;32.20;19.27;;;;;;;3.94;100.00;99660.99;1475228;88;21429;-76
2023/01/16 03:10:47;;;;;;;27.50;17.17;;;;;;;3.92;100.00;99653.73;1472610;88;22376;-76
2023/01/16 03:13:19;;;;;;;28.62;17.05;;;;;;;3.95;100.00;99653.48;1484190;88;21347;-78
2023/01/16 03:16:31;;;;;;;29.83;18.30;;;;;;;4.01;100.00;99652.98;1469530;88;21586;-77
2023/01/16 03:19:19;;;;;;;34.20;18.87;;;;;;;4.01;100.00;99652.98;1478254;88;21384;-78
2023/01/16 03:21:54;;;;;;;32.93;18.57;;;;;;;4.03;100.00;99639.30;1469680;88;22435;-77
2023/01/16 03:24:46;;;;;;;28.07;18.13;;;;;;;4.03;100.00;99652.39;1477153;88;21451;-78
2023/01/16 03:27:30;;;;;;;29.00;18.20;;;;;;;4.01;100.00;99633.83;1468675;88;21525;-76
2023/01/16 03:30:08;;;;;;;27.27;17.47;;;;;;;4.01;100.00;99633.83;1471398;88;21778;-77
2023/01/16 03:32:40;;;;;;;28.47;18.27;;;;;;;4.02;100.00;99632.38;1468597;88;21517;-77
2023/01/16 03:35:18;;;;;;;27.53;17.60;;;;;;;4.07;100.00;99632.84;1470074;88;21539;-77
2023/01/16 03:37:52;;;;;;;29.23;19.67;;;;;;;4.11;100.00;99631.28;1471377;88;22368;-77
2023/01/16 03:40:26;;;;;;;36.37;20.53;;;;;;;4.12;100.00;99639.50;1482022;88;21487;-77
2023/01/16 03:43:03;;;;;;;35.97;21.17;;;;;;;4.12;100.00;99634.27;1481421;88;21450;-77
2023/01/16 03:45:53;;;;;;;28.60;18.23;;;;;;;4.12;100.00;99634.27;1474261;88;22442;-77
2023/01/16 03:48:40;;;;;;;29.20;18.43;;;;;;;4.12;100.00;99638.20;1474388;88;22457;-77
2023/01/16 03:51:08;;;;;;;26.03;17.40;;;;;;;4.11;100.00;99629.48;1470192;88;21465;-77
2023/01/16 03:53:48;;;;;;;30.13;18.27;;;;;;;4.14;100.00;99635.78;1476049;88;21613;-77
2023/01/16 03:56:29;;;;;;;23.45;14.95;;;;;;;4.14;100.00;99640.19;1475062;88;21524;-77
2023/01/16 03:58:56;;;;;;;33.67;19.98;;;;;;;4.14;100.00;99640.19;1472409;88;21473;-77
2023/01/16 04:01:36;;;;;;;28.30;19.13;;;;;;;4.15;100.00;99634.02;1471412;88;22398;-77
2023/01/16 04:04:20;;;;;;;33.20;20.25;;;;;;;4.15;100.00;99621.75;1472675;88;21473;-77
2023/01/16 04:06:58;;;;;;;33.50;19.20;;;;;;;4.17;100.00;99622.91;1479385;88;21487;-76
2023/01/16 04:09:51;;;;;;;34.27;20.53;;;;;;;4.16;100.00;99632.56;1473330;88;21480;-77
2023/01/16 04:12:22;;;;;;;36.03;18.83;;;;;;;4.15;100.00;99623.54;1478601;88;21429;-76
2023/01/16 04:14:54;;;;;;;35.10;19.80;;;;;;;4.16;100.00;99624.70;1467291;88;22382;-76
2023/01/16 04:17:20;;;;;;;28.80;19.10;;;;;;;4.19;100.00;99613.15;1478749;88;21428;-76
2023/01/16 04:19:47;;;;;;;42.07;21.03;;;;;;;4.24;100.00;99613.13;1484621;88;22367;-76
2023/01/16 04:22:23;;;;;;;37.77;21.03;;;;;;;4.27;100.00;99615.97;1473623;88;21502;-77
2023/01/16 04:24:51;;;;;;;34.07;21.40;;;;;;;4.26;100.00;99612.53;1485922;88;21414;-76
2023/01/16 04:27:19;;;;;;;36.47;22.63;;;;;;;4.28;100.00;99611.07;1476211;88;21377;-77
2023/01/16 04:29:45;;;;;;;29.23;19.17;;;;;;;4.23;100.00;99614.09;1475623;88;21739;-77
2023/01/16 04:32:12;;;;;;;34.30;20.13;;;;;;;4.22;100.00;99607.66;1470516;88;21532;-77
2023/01/16 04:34:39;;;;;;;32.97;20.03;;;;;;;4.20;100.00;99609.56;1473284;88;21488;-77
2023/01/16 04:37:06;;;;;;;33.30;19.33;;;;;;;4.22;100.00;99620.27;1473851;88;21554;-77
2023/01/16 04:39:33;;;;;;;30.50;18.57;;;;;;;4.22;100.00;99615.52;1476648;88;21473;-77
2023/01/16 04:41:59;;;;;;;28.57;17.87;;;;;;;4.21;100.00;99606.00;1482084;88;21458;-77
2023/01/16 04:44:26;;;;;;;33.77;20.07;;;;;;;4.23;100.00;99599.69;1476099;88;22604;-76
2023/01/16 04:46:53;;;;;;;41.63;25.37;;;;;;;4.23;100.00;99598.83;1465639;88;21577;-77
2023/01/16 04:49:20;;;;;;;32.60;21.60;;;;;;;4.23;100.00;99593.59;1474684;88;21451;-78
2023/01/16 04:51:46;;;;;;;30.77;20.23;;;;;;;4.23;100.00;99588.35;1476242;88;21608;-77
2023/01/16 04:54:18;;;;;;;30.13;18.53;;;;;;;4.24;100.00;99587.41;1474538;88;21459;-78
2023/01/16 04:56:44;;;;;;;24.93;16.73;;;;;;;4.27;100.00;99586.67;1466715;88;21437;-79
2023/01/16 04:59:12;;;;;;;26.63;16.20;;;;;;;4.31;100.00;99580.69;1478844;88;21584;-77
2023/01/16 05:01:40;;;;;;;28.23;17.37;;;;;;;4.33;100.00;99580.58;1474737;88;21451;-77
2023/01/16 05:04:08;;;;;;;30.03;19.73;;;;;;;4.34;100.00;99572.58;1466685;88;21577;-77
2023/01/16 05:06:35;;;;;;;27.90;17.23;;;;;;;4.36;99.95;99564.11;1479079;88;22280;-76
2023/01/16 05:09:05;;;;;;;30.73;20.17;;;;;;;4.36;99.91;99556.73;1475650;88;21607;-77
2023/01/16 05:11:32;;;;;;;29.07;18.53;;;;;;;4.35;99.80;99551.16;1475365;88;21555;-77
2023/01/16 05:13:59;;;;;;;31.07;17.93;;;;;;;4.32;99.87;99550.11;1469874;88;21450;-76
2023/01/16 05:16:26;;;;;;;26.43;16.43;;;;;;;4.32;99.62;99544.88;1474143;88;21474;-78
2023/01/16 05:18:52;;;;;;;33.13;17.93;;;;;;;4.33;99.47;99542.11;1469025;88;21600;-79
2023/01/16 05:21:18;;;;;;;22.93;15.23;;;;;;;4.34;99.52;99541.14;1474016;88;21430;-80
2023/01/16 05:23:45;;;;;;;24.23;15.60;;;;;;;4.36;99.40;99541.84;1471215;88;22361;-79
2023/01/16 05:26:11;;;;;;;28.30;17.43;;;;;;;4.40;99.38;99535.86;1475995;88;21571;-80
2023/01/16 05:28:37;;;;;;;30.47;18.33;;;;;;;4.41;99.18;99532.30;1477821;88;21392;-79
2023/01/16 05:31:03;;;;;;;28.00;16.77;;;;;;;4.41;98.95;99523.13;1469068;88;21436;-79
2023/01/16 05:33:30;;;;;;;27.17;18.83;;;;;;;4.37;98.80;99529.09;1469126;88;22590;-80
2023/01/16 05:35:56;;;;;;;28.13;17.87;;;;;;;4.32;98.68;99526.05;1472740;88;21945;-79
2023/01/16 05:38:23;;;;;;;31.13;18.27;;;;;;;4.31;98.64;99529.61;1466519;88;21607;-79
2023/01/16 05:40:50;;;;;;;37.23;22.67;;;;;;;4.30;98.52;99525.34;1471140;88;21451;-79
2023/01/16 05:43:16;;;;;;;51.77;29.70;;;;;;;4.31;98.76;99523.06;1473027;88;21643;-79
2023/01/16 05:45:42;;;;;;;38.90;22.73;;;;;;;4.34;98.61;99522.80;1467764;88;22369;-80
2023/01/16 05:48:08;;;;;;;33.50;21.13;;;;;;;4.35;98.52;99515.80;1466232;88;21588;-79
2023/01/16 05:50:35;;;;;;;38.83;22.03;;;;;;;4.37;98.43;99513.85;1473236;88;21355;-79
2023/01/16 05:53:01;;;;;;;39.17;25.37;;;;;;;4.36;98.28;99505.17;1475273;88;21607;-78
2023/01/16 05:55:27;;;;;;;53.03;30.90;;;;;;;4.37;98.23;99513.37;1468080;88;21400;-79
2023/01/16 05:57:54;;;;;;;59.50;31.33;;;;;;;4.37;98.11;99514.67;1466074;88;21577;-76
2023/01/16 06:00:21;;;;;;;52.73;29.87;;;;;;;4.36;98.12;99514.34;1471503;88;21429;-76
2023/01/16 06:02:47;;;;;;;50.80;27.47;;;;;;;4.33;98.12;99515.91;1474938;88;21407;-77
2023/01/16 06:05:14;;;;;;;44.70;25.90;;;;;;;4.34;98.23;99509.70;1478072;88;22324;-78
2023/01/16 06:07:43;;;;;;;40.37;24.00;;;;;;;4.35;98.13;99511.87;1481636;88;21421;-77
2023/01/16 06:10:11;;;;;;;28.80;18.13;;;;;;;4.35;98.15;99506.14;1475382;88;21422;-77
2023/01/16 06:12:38;;;;;;;36.70;20.60;;;;;;;4.39;98.29;99508.84;1467255;88;21483;-78
2023/01/16 06:15:05;;;;;;;32.00;19.50;;;;;;;4.41;98.23;99505.61;1472771;88;21593;-79
2023/01/16 06:17:31;;;;;;;40.00;23.03;;;;;;;4.45;98.16;99498.31;1471958;88;21414;-79
2023/01/16 06:19:59;;;;;;;40.37;24.07;;;;;;;4.45;98.10;99499.14;1475909;88;21666;-80
2023/01/16 06:22:26;;;;;;;36.90;22.80;;;;;;;4.45;97.91;99494.39;1469280;88;21502;-79
2023/01/16 06:24:52;;;;;;;36.63;22.03;;;;;;;4.43;97.56;99492.36;1472823;88;21443;-77
2023/01/16 06:27:19;;;;;;;35.30;19.93;;;;;;;4.40;97.54;99493.48;1467977;88;22435;-77
2023/01/16 06:29:45;;;;;;;31.87;19.07;;;;;;;4.39;97.62;99493.11;1470320;88;21370;-77
2023/01/16 06:32:11;;;;;;;28.13;16.30;;;;;;;4.42;97.70;99497.27;1467888;88;21658;-75
2023/01/16 06:34:38;;;;;;;30.37;18.93;;;;;;;4.44;97.63;99499.29;1467968;88;21451;-78
2023/01/16 06:37:04;;;;;;;31.23;19.90;;;;;;;4.46;97.60;99494.27;1468509;88;21459;-79
2023/01/16 06:39:30;;;;;;;29.40;19.33;;;;;;;4.50;97.60;99495.66;1466194;88;21702;-79
2023/01/16 06:41:57;;;;;;;34.77;22.57;;;;;;;4.52;97.57;99491.60;1477136;88;21437;-78
2023/01/16 06:44:23;;;;;;;31.37;19.77;;;;;;;4.49;97.30;99497.11;1454635;88;21459;-77
2023/01/16 06:46:49;;;;;;;35.03;20.83;;;;;;;4.49;97.31;99495.31;1475140;88;21510;-77
2023/01/16 06:49:16;;;;;;;34.20;19.33;;;;;;;4.47;97.36;99494.61;1476438;88;22402;-77
2023/01/16 06:51:43;;;;;;;35.53;21.27;;;;;;;4.46;97.48;99491.65;1463282;88;21362;-77
2023/01/16 06:54:10;;;;;;;37.63;21.03;;;;;;;4.46;97.63;99492.95;1474706;88;22221;-78
2023/01/16 06:56:36;;;;;;;52.47;29.20;;;;;;;4.46;97.54;99496.89;1471224;88;21548;-77
2023/01/16 06:59:03;;;;;;;59.90;32.23;;;;;;;4.49;97.54;99500.55;1473619;88;21384;-77
2023/01/16 07:01:29;;;;;;;62.90;34.57;;;;;;;4.54;97.58;99502.77;1474400;88;22272;-79
2023/01/16 07:03:55;;;;;;;68.87;36.50;;;;;;;4.57;97.62;99497.25;1471391;88;21584;-78
2023/01/16 07:06:22;;;;;;;37.30;23.17;;;;;;;4.57;97.62;99493.81;1470840;88;21466;-78
2023/01/16 07:08:50;;;;;;;33.13;20.67;;;;;;;4.55;97.54;99486.09;1473431;88;21587;-78
2023/01/16 07:11:17;;;;;;;33.13;22.63;;;;;;;4.48;98.15;99472.67;1470027;88;21569;-78
2023/01/16 07:13:43;;;;;;;32.47;20.37;;;;;;;4.43;98.19;99472.26;1469784;88;22509;-78
2023/01/16 07:24:36;;;;;;;31.20;19.20;;;;;;;4.49;98.48;99474.35;1471367;88;21510;-79
2023/01/16 07:27:05;;;;;;;32.38;19.95;;;;;;;4.53;98.33;99471.80;1480529;88;22354;-80
2023/01/16 07:29:34;;;;;;;32.43;21.50;;;;;;;4.54;98.34;99466.08;1477472;88;21474;-88
2023/01/16 07:32:08;;;;;;;32.43;20.70;;;;;;;4.50;98.38;99473.38;1470650;88;21407;-86
2023/01/16 07:34:35;;;;;;;37.20;21.93;;;;;;;4.47;98.31;99464.47;1476590;88;21568;-88
2023/01/16 07:37:01;;;;;;;39.90;21.20;;;;;;;4.44;98.46;99466.05;1456623;88;22342;-88
2023/01/16 07:39:27;;;;;;;37.77;22.57;;;;;;;4.44;98.65;99473.91;1466185;88;22714;-85
2023/01/16 07:41:53;;;;;;;35.73;22.83;;;;;;;4.48;98.66;99479.22;1473864;88;21414;-86
2023/01/16 07:44:21;;;;;;;35.57;22.53;;;;;;;4.50;98.84;99470.76;1474209;88;21429;-85
2023/01/16 07:46:47;;;;;;;36.87;21.60;;;;;;;4.52;98.83;99469.33;1474260;88;21436;-86
2023/01/16 07:49:13;;;;;;;35.90;22.63;;;;;;;4.56;98.79;99473.81;1470956;88;21355;-85
2023/01/16 07:51:39;;;;;;;37.50;22.00;;;;;;;4.57;98.96;99471.53;1475926;88;22442;-84
2023/01/16 07:54:07;;;;;;;36.97;22.00;;;;;;;4.56;98.83;99465.47;1474435;88;21518;-86
2023/01/16 07:56:34;;;;;;;32.17;20.80;;;;;;;4.56;98.65;99458.92;1477800;88;21527;-86
2023/01/16 07:59:00;;;;;;;39.93;21.83;;;;;;;4.55;98.79;99453.83;1472703;88;21443;-85
2023/01/16 08:01:33;;;;;;;37.17;22.00;;;;;;;4.51;99.09;99454.06;1474814;88;21436;-84
2023/01/16 08:04:00;;;;;;;30.93;19.97;;;;;;;4.51;98.84;99448.82;1478667;88;22458;-88
2023/01/16 08:06:26;;;;;;;33.90;21.40;;;;;;;4.53;98.96;99444.28;1474218;88;21385;-84
2023/01/16 08:08:52;;;;;;;37.03;22.40;;;;;;;4.56;98.87;99437.13;1480111;88;21518;-83
2023/01/16 08:11:38;;;;;;;32.40;20.00;;;;;;;4.58;98.91;99440.45;1467737;88;22317;-84
2023/01/16 08:14:10;;;;;;;36.57;23.30;;;;;;;4.60;98.88;99441.12;1472090;88;21472;-84
2023/01/16 08:16:36;;;;;;;38.23;22.27;;;;;;;4.63;98.86;99436.93;1473592;88;21472;-87
2023/01/16 08:19:03;;;;;;;40.93;24.50;;;;;;;4.65;98.84;99428.46;1477228;88;21458;-86
2023/01/16 08:21:30;;;;;;;37.27;23.60;;;;;;;4.66;98.94;99434.04;1476038;88;21599;-88
2023/01/16 08:23:56;;;;;;;34.50;22.83;;;;;;;4.66;98.85;99428.34;1477702;88;21429;-84
2023/01/16 08:26:22;;;;;;;30.90;20.47;;;;;;;4.67;98.93;99434.41;1482211;88;21532;-87
2023/01/16 08:28:49;;;;;;;30.23;19.17;;;;;;;4.69;98.83;99427.22;1459022;88;21384;-86
2023/01/16 08:31:17;;;;;;;33.83;20.37;;;;;;;4.72;98.68;99434.84;1480695;88;21421;-85
2023/01/16 08:33:56;;;;;;;30.90;20.17;;;;;;;4.75;98.34;99438.02;1474559;88;21636;-86
2023/01/16 08:36:22;;;;;;;34.37;22.27;;;;;;;4.78;97.99;99441.34;1468122;88;21555;-87
2023/01/16 08:38:50;;;;;;;35.10;22.87;;;;;;;4.84;98.00;99442.93;1469167;88;21533;-86
2023/01/16 08:54:16;;;;;;;31.53;21.77;;;;;;;4.98;97.07;99434.67;1471048;88;22369;-86
2023/01/16 08:56:42;;;;;;;30.97;19.60;;;;;;;5.04;96.76;99433.80;1458410;88;22383;-85
2023/01/16 08:59:12;;;;;;;34.00;21.43;;;;;;;5.06;96.00;99434.47;1465173;88;21489;-87
2023/01/16 09:01:39;;;;;;;32.00;21.20;;;;;;;5.10;95.86;99435.87;1468847;88;21421;-84
2023/01/16 09:04:06;;;;;;;26.73;17.57;;;;;;;5.11;95.69;99433.09;1477161;88;21481;-86
2023/01/16 09:06:35;;;;;;;28.67;18.13;;;;;;;5.09;94.62;99426.32;1471837;88;21630;-86
2023/01/16 09:09:00;;;;;;;32.73;20.97;;;;;;;5.06;94.89;99423.48;1472608;88;21444;-85
2023/01/16 09:14:11;;;;;;;38.33;16.33;;;;;;;5.07;94.89;99424.34;1472728;88;21481;-89
2023/01/16 09:16:37;;;;;;;26.57;17.13;;;;;;;5.09;94.80;99421.08;1458835;88;21646;-89
2023/01/16 09:19:03;;;;;;;31.43;18.03;;;;;;;5.11;94.77;99419.16;1471669;88;21437;-89
2023/01/16 09:21:29;;;;;;;27.60;16.43;;;;;;;5.10;94.48;99413.57;1467589;88;21459;-87
2023/01/16 09:23:56;;;;;;;29.27;17.90;;;;;;;5.09;94.60;99409.27;1474041;88;22457;-89
2023/01/16 09:26:22;;;;;;;28.40;16.70;;;;;;;5.07;94.67;99404.67;1469014;88;21401;-89
2023/01/16 09:28:48;;;;;;;25.73;16.27;;;;;;;5.04;94.87;99399.70;1472425;88;22206;-90
2023/01/16 09:31:15;;;;;;;31.60;15.90;;;;;;;4.96;95.10;99397.27;1464530;88;22472;-90
2023/01/16 09:33:41;;;;;;;25.40;16.40;;;;;;;4.98;94.98;99394.52;1469832;88;21422;-87
2023/01/16 09:36:09;;;;;;;19.00;13.60;;;;;;;5.00;94.98;99386.50;1472120;88;21429;-88
2023/01/16 09:38:36;;;;;;;24.90;14.93;;;;;;;5.05;95.33;99382.98;1472484;88;21465;-90
2023/01/16 09:41:02;;;;;;;25.20;15.23;;;;;;;5.10;95.05;99382.92;1472693;88;21429;-88
2023/01/16 09:43:39;;;;;;;24.70;15.73;;;;;;;5.10;94.71;99374.23;1461615;88;21710;-90
2023/01/16 09:46:13;;;;;;;27.03;17.07;;;;;;;5.12;95.02;99368.34;1472118;88;21429;-89
2023/01/16 09:48:57;;;;;;;24.97;16.13;;;;;;;5.12;94.87;99360.47;1470903;88;21426;-88
2023/01/16 09:51:34;;;;;;;23.30;15.77;;;;;;;5.13;95.03;99364.77;1474342;88;21606;-88
2023/01/16 09:59:52;;;;;;;19.10;13.57;;;;;;;5.12;95.02;99350.83;1473214;88;21576;-86
2023/01/16 10:02:26;;;;;;;19.15;13.40;;;;;;;5.13;95.01;99353.80;1470503;88;21452;-89
2023/01/16 10:04:55;;;;;;;23.70;14.77;;;;;;;5.15;95.00;99351.02;1473038;88;21576;-91
2023/01/16 10:07:55;;;;;;;25.07;14.47;;;;;;;5.19;95.17;99344.54;1473091;88;21436;-89
2023/01/16 10:10:33;;;;;;;21.77;13.47;;;;;;;5.16;94.23;99340.39;1474836;88;22561;-89
2023/01/16 10:13:25;;;;;;;22.63;14.10;;;;;;;5.16;94.59;99331.70;1473735;88;21451;-89
2023/01/16 10:16:24;;;;;;;18.50;12.67;;;;;;;5.10;95.26;99314.73;1473419;88;21422;-90
2023/01/16 10:19:14;;;;;;;18.00;12.20;;;;;;;5.02;95.77;99307.22;1474867;88;21459;-87
2023/01/16 10:22:09;;;;;;;20.10;13.40;;;;;;;5.01;96.30;99299.02;1475653;88;21458;-89
2023/01/16 10:24:56;;;;;;;38.90;17.63;;;;;;;5.04;96.64;99285.63;1471518;88;21548;-87
2023/01/16 10:27:51;;;;;;;35.80;19.67;;;;;;;5.08;97.14;99281.73;1470672;88;21495;-87
2023/01/16 10:30:47;;;;;;;38.10;17.07;;;;;;;5.19;97.03;99269.78;1472561;88;22685;-84
2023/01/16 10:33:34;;;;;;;24.33;15.70;;;;;;;5.22;97.17;99260.31;1469238;88;21588;-86
2023/01/16 10:36:04;;;;;;;20.87;14.20;;;;;;;5.25;96.53;99253.47;1474515;88;21592;-85
2023/01/16 10:38:55;;;;;;;20.35;14.18;;;;;;;5.23;96.51;99241.46;1472680;88;21488;-85
2023/01/16 10:50:20;;;;;;;21.43;13.20;;;;;;;5.24;95.57;99220.84;1553469;88;21751;-82
2023/01/16 10:52:48;;;;;;;23.60;14.73;;;;;;;5.25;95.52;99220.67;1393722;88;21355;-77
2023/01/16 10:55:16;;;;;;;23.13;14.77;;;;;;;5.27;95.59;99212.19;1395201;88;21581;-77
2023/01/16 10:57:56;;;;;;;21.33;13.33;;;;;;;5.33;97.46;99210.30;1395434;88;21409;-76
2023/01/16 11:00:28;;;;;;;22.13;12.77;;;;;;;5.36;97.16;99206.56;1557119;88;21487;-77
2023/01/16 11:03:18;;;;;;;22.83;15.27;;;;;;;5.39;97.87;99201.84;1498751;88;21646;-77
2023/01/16 11:05:45;;;;;;;25.97;15.53;;;;;;;5.50;96.24;99181.66;1470275;88;22504;-77
2023/01/16 11:08:15;;;;;;;24.23;14.70;;;;;;;5.53;96.27;99170.86;1471534;88;21538;-78
2023/01/16 11:10:45;;;;;;;22.27;12.82;;;;;;;5.59;95.79;99171.09;1521352;88;21540;-78
2023/01/16 11:19:21;;;;;;;25.90;17.33;;;;;;;5.76;93.88;99147.17;1557150;88;21463;-78
2023/01/16 11:22:07;;;;;;;25.53;16.27;;;;;;;5.79;93.80;99142.11;1557115;88;21503;-78
2023/01/16 11:24:35;;;;;;;20.83;13.17;;;;;;;5.77;92.80;99140.94;1393305;89;21370;-77
2023/01/16 11:27:10;;;;;;;21.00;14.47;;;;;;;5.77;93.22;99126.98;1392908;88;21385;-76
2023/01/16 11:29:42;;;;;;;23.03;16.00;;;;;;;5.81;93.96;99116.05;1556811;88;21713;-76
2023/01/16 11:32:13;;;;;;;20.13;14.73;;;;;;;5.86;93.99;99113.78;1393381;88;22431;-74
2023/01/16 11:34:46;;;;;;;25.40;15.10;;;;;;;5.92;93.66;99107.11;1557322;88;21334;-87
2023/01/16 11:37:16;;;;;;;22.40;14.83;;;;;;;5.98;93.40;99101.28;1468877;88;21963;-91
2023/01/16 11:39:48;;;;;;;27.13;14.37;;;;;;;5.96;92.27;99095.87;1477862;88;21986;-87
2023/01/16 11:48:22;;;;;;;28.33;17.07;;;;;;;5.92;92.59;99074.77;1476645;88;21639;-87
2023/01/16 11:50:52;;;;;;;21.20;14.33;;;;;;;5.89;92.55;99064.90;1478424;88;21480;-86
2023/01/16 11:53:18;;;;;;;22.53;14.57;;;;;;;5.93;92.55;99061.97;1474481;88;21510;-85
2023/01/16 11:56:42;;;;;;;22.67;14.80;;;;;;;5.93;92.02;99056.72;1479103;88;21377;-87
2023/01/16 11:59:26;;;;;;;25.60;15.10;;;;;;;6.00;92.14;99048.61;1477548;88;22323;-87
2023/01/16 12:02:16;;;;;;;22.87;15.80;;;;;;;6.04;92.06;99043.38;1478691;88;21517;-91
2023/01/16 12:07:53;;;;;;;22.33;13.77;;;;;;;6.04;90.29;99030.25;1476565;88;21750;-90
2023/01/16 12:10:38;;;;;;;23.83;15.10;;;;;;;5.99;88.97;99023.34;1476116;88;22385;-92
2023/01/16 12:16:23;;;;;;;23.70;15.20;;;;;;;6.01;89.03;99010.86;1476219;88;21629;-91
2023/01/16 12:19:23;;;;;;;27.83;14.97;;;;;;;6.04;89.80;99003.52;1475644;88;22414;-89
2023/01/16 12:22:00;;;;;;;27.33;15.60;;;;;;;6.09;89.31;99001.23;1478527;88;21723;-91
2023/01/16 12:24:35;;;;;;;27.57;15.93;;;;;;;6.15;89.24;98998.98;1472248;88;21530;-91
2023/01/16 12:27:19;;;;;;;26.27;15.90;;;;;;;6.17;88.98;98991.28;1476449;88;21488;-86
2023/01/16 12:30:10;;;;;;;25.13;14.40;;;;;;;6.26;88.51;98992.97;1474107;88;21480;-87
2023/01/16 12:33:13;;;;;;;25.73;15.80;;;;;;;6.23;86.99;98978.84;1473220;88;21561;-87
2023/01/16 12:36:15;;;;;;;21.30;14.63;;;;;;;6.24;86.58;98981.81;1441879;90;22732;-89
2023/01/16 12:39:25;;;;;;;21.57;15.10;;;;;;;6.25;86.46;98965.06;1413643;92;21508;-90
2023/01/16 12:45:38;;;;;;;24.30;16.37;;;;;;;6.30;86.50;98961.48;1412371;92;21493;-88
2023/01/16 12:48:34;;;;;;;21.57;14.10;;;;;;;6.36;86.78;98955.25;1414377;92;21449;-89
2023/01/16 12:51:27;;;;;;;24.50;16.03;;;;;;;6.33;86.06;98958.55;1411849;92;21521;-88